Time;durP1;ratioP1;P1;durP2;ratioP2;P2;SDS_P1;SDS_P2;PMS_P1;PMS_P2;Temp;Humidity;BMP_temperature;BMP_pressure;BME280_temperature;BME280_humidity;BME280_pressure;Samples;Min_cycle;Max_cycle;Signal;HPM_P1;HPM_P2
2022/10/01 00:02:22;;;;;;;;;;;8.40;81.70;;;;;;5012976;28;20327;-63
2022/10/01 00:04:52;;;;;;;;;;;8.30;81.80;;;;;;5022061;28;19929;-63
2022/10/01 00:07:20;;;;;;;;;;;8.30;81.70;;;;;;5024326;28;19932;-63
2022/10/01 00:09:47;;;;;;;;;;;8.30;81.60;;;;;;5025631;28;19965;-62
2022/10/01 00:12:15;;;;;;;;;;;8.30;81.60;;;;;;5022684;28;20664;-64
2022/10/01 00:14:47;;;;;;;;;;;8.30;81.60;;;;;;5021499;28;20008;-62
2022/10/01 00:17:15;;;;;;;;;;;8.20;81.70;;;;;;5024819;28;19988;-63
2022/10/01 00:19:42;;;;;;;;;;;8.20;81.80;;;;;;5025953;28;19951;-63
2022/10/01 00:22:08;;;;;;;;;;;8.20;81.70;;;;;;5016750;28;20369;-62
2022/10/01 00:24:37;;;;;;;;;;;8.20;81.70;;;;;;5025668;28;19929;-64
2022/10/01 00:27:04;;;;;;;;;;;8.20;81.70;;;;;;5023541;28;20020;-63
2022/10/01 00:29:31;;;;;;;;;;;8.20;81.70;;;;;;5026442;28;19925;-62
2022/10/01 00:31:58;;;;;;;;;;;8.20;81.60;;;;;;5022340;28;19933;-63
2022/10/01 00:34:27;;;;;;;;;;;8.20;81.60;;;;;;5025692;28;19984;-63
2022/10/01 00:36:53;;;;;;;;;;;8.10;81.60;;;;;;5024635;28;19929;-62
2022/10/01 00:39:20;;;;;;;;;;;8.10;81.70;;;;;;5026603;28;19925;-65
2022/10/01 00:41:51;;;;;;;;;;;8.10;81.70;;;;;;5023024;28;19937;-62
2022/10/01 00:44:31;;;;;;;;;;;8.10;81.70;;;;;;5027339;28;19938;-62
2022/10/01 00:47:02;;;;;;;;;;;8.10;81.80;;;;;;5042252;28;19945;-62
2022/10/01 00:49:39;;;;;;;;;;;8.10;82.00;;;;;;5042657;28;19933;-62
2022/10/01 00:52:08;;;;;;;;;;;8.10;82.00;;;;;;5032605;28;19929;-64
2022/10/01 00:54:39;;;;;;;;;;;8.10;82.00;;;;;;5041559;28;19948;-64
2022/10/01 00:57:07;;;;;;;;;;;8.10;82.10;;;;;;5041536;28;20023;-64
2022/10/01 00:59:35;;;;;;;;;;;8.10;82.10;;;;;;5041734;28;19924;-64
2022/10/01 01:02:01;;;;;;;;;;;8.10;82.20;;;;;;5026654;28;19925;-63
2022/10/01 01:04:28;;;;;;;;;;;8.10;82.30;;;;;;5021472;28;19929;-62
2022/10/01 01:06:57;;;;;;;;;;;8.10;82.20;;;;;;5025442;28;19925;-63
2022/10/01 01:09:26;;;;;;;;;;;8.10;82.40;;;;;;5024312;28;20302;-64
2022/10/01 01:12:00;;;;;;;;;;;8.10;82.40;;;;;;5023181;28;19933;-64
2022/10/01 01:14:32;;;;;;;;;;;8.10;82.30;;;;;;5020397;28;20315;-62
2022/10/01 01:17:01;;;;;;;;;;;8.10;82.40;;;;;;5023476;28;20276;-63
2022/10/01 01:19:41;;;;;;;;;;;8.10;82.40;;;;;;5026260;28;19925;-64
2022/10/01 01:22:10;;;;;;;;;;;8.10;82.40;;;;;;5016445;28;20403;-62
2022/10/01 01:24:44;;;;;;;;;;;8.10;82.40;;;;;;5024110;28;19929;-63
2022/10/01 01:27:24;;;;;;;;;;;8.10;82.50;;;;;;5025419;28;19976;-63
2022/10/01 01:29:54;;;;;;;;;;;8.00;82.60;;;;;;5027542;28;19932;-63
2022/10/01 01:32:23;;;;;;;;;;;8.00;82.60;;;;;;5027038;28;19934;-62
2022/10/01 01:34:51;;;;;;;;;;;8.10;82.60;;;;;;5045083;28;19932;-62
2022/10/01 01:37:20;;;;;;;;;;;8.10;82.50;;;;;;5046702;28;20282;-64
2022/10/01 01:39:48;;;;;;;;;;;8.10;82.70;;;;;;5045479;28;20421;-63
2022/10/01 01:42:20;;;;;;;;;;;8.00;82.70;;;;;;5046597;28;20500;-63
2022/10/01 01:44:47;;;;;;;;;;;8.10;82.80;;;;;;5046888;28;19928;-64
2022/10/01 01:47:18;;;;;;;;;;;8.00;82.90;;;;;;5036652;28;19932;-62
2022/10/01 01:49:49;;;;;;;;;;;8.10;82.60;;;;;;5049188;28;19933;-63
2022/10/01 01:52:20;;;;;;;;;;;8.10;82.60;;;;;;5045100;28;20019;-62
2022/10/01 01:54:48;;;;;;;;;;;8.00;82.70;;;;;;5038432;28;19925;-63
2022/10/01 01:57:16;;;;;;;;;;;8.10;82.60;;;;;;5043978;28;19934;-63
2022/10/01 01:59:43;;;;;;;;;;;8.10;82.70;;;;;;5046010;28;19936;-62
2022/10/01 02:02:12;;;;;;;;;;;8.10;82.50;;;;;;5044705;28;19928;-63
2022/10/01 02:04:41;;;;;;;;;;;8.10;82.50;;;;;;5036828;28;19932;-63
2022/10/01 02:07:15;;;;;;;;;;;8.10;82.70;;;;;;5047423;28;19932;-64
2022/10/01 02:09:48;;;;;;;;;;;8.10;82.80;;;;;;5048431;28;19932;-64
2022/10/01 02:12:20;;;;;;;;;;;8.10;82.70;;;;;;5043520;28;19936;-64
2022/10/01 02:14:51;;;;;;;;;;;8.00;82.80;;;;;;5045458;28;20028;-63
2022/10/01 02:17:23;;;;;;;;;;;8.10;82.90;;;;;;5024923;28;19997;-64
2022/10/01 02:19:57;;;;;;;;;;;8.00;83.10;;;;;;5042695;28;20337;-64
2022/10/01 02:22:28;;;;;;;;;;;8.00;83.10;;;;;;5019677;28;19925;-64
2022/10/01 02:24:57;;;;;;;;;;;8.00;83.20;;;;;;5013439;28;20002;-65
2022/10/01 02:27:26;;;;;;;;;;;8.00;83.30;;;;;;5017634;28;19932;-63
2022/10/01 02:29:54;;;;;;;;;;;8.10;83.10;;;;;;5020894;28;19925;-63
2022/10/01 02:32:22;;;;;;;;;;;8.10;83.10;;;;;;5018446;28;19929;-63
2022/10/01 02:34:50;;;;;;;;;;;8.10;83.00;;;;;;5021610;28;19968;-62
2022/10/01 02:37:20;;;;;;;;;;;8.00;83.20;;;;;;5017367;28;19934;-64
2022/10/01 02:39:47;;;;;;;;;;;8.10;83.20;;;;;;5013829;28;19976;-64
2022/10/01 02:42:16;;;;;;;;;;;8.00;83.20;;;;;;5013780;28;19936;-63
2022/10/01 02:44:44;;;;;;;;;;;8.00;83.30;;;;;;5015489;28;20395;-64
2022/10/01 02:47:14;;;;;;;;;;;8.10;83.30;;;;;;5020559;28;19949;-62
2022/10/01 02:49:43;;;;;;;;;;;8.00;83.40;;;;;;5014381;28;19933;-64
2022/10/01 02:52:14;;;;;;;;;;;8.00;83.60;;;;;;5011988;28;19977;-65
2022/10/01 02:54:46;;;;;;;;;;;8.00;83.60;;;;;;5013111;28;20011;-65
2022/10/01 02:57:27;;;;;;;;;;;8.10;83.50;;;;;;5024992;28;19932;-64
2022/10/01 02:59:56;;;;;;;;;;;8.10;83.60;;;;;;5026961;28;19932;-65
2022/10/01 03:02:24;;;;;;;;;;;8.00;83.70;;;;;;5013748;28;19932;-64
2022/10/01 03:04:51;;;;;;;;;;;8.10;83.70;;;;;;4994272;28;19930;-64
2022/10/01 03:07:17;;;;;;;;;;;8.10;83.70;;;;;;5019131;28;19933;-62
2022/10/01 03:09:45;;;;;;;;;;;8.10;83.70;;;;;;5001347;28;20004;-64
2022/10/01 03:12:12;;;;;;;;;;;8.10;83.80;;;;;;5009615;28;19926;-64
2022/10/01 03:14:39;;;;;;;;;;;8.10;83.90;;;;;;5015662;28;20290;-64
2022/10/01 03:17:06;;;;;;;;;;;8.10;84.00;;;;;;5006733;28;20291;-64
2022/10/01 03:19:32;;;;;;;;;;;8.10;84.10;;;;;;5018483;28;20455;-62
2022/10/01 03:21:59;;;;;;;;;;;8.10;84.10;;;;;;5021499;28;19929;-63
2022/10/01 03:24:26;;;;;;;;;;;8.10;84.20;;;;;;5012687;28;19941;-62
2022/10/01 03:26:54;;;;;;;;;;;8.10;84.30;;;;;;4995909;28;19999;-63
2022/10/01 03:29:21;;;;;;;;;;;8.10;84.30;;;;;;5014690;28;19933;-63
2022/10/01 03:31:47;;;;;;;;;;;8.10;84.50;;;;;;5011885;28;19925;-63
2022/10/01 03:34:14;;;;;;;;;;;8.20;84.30;;;;;;5004250;28;19929;-63
2022/10/01 03:36:41;;;;;;;;;;;8.10;84.40;;;;;;5017794;28;19952;-69
2022/10/01 03:39:07;;;;;;;;;;;8.10;84.60;;;;;;5017152;28;20019;-68
2022/10/01 03:41:34;;;;;;;;;;;8.10;84.70;;;;;;5010715;28;19936;-68
2022/10/01 03:44:02;;;;;;;;;;;8.10;84.90;;;;;;4995186;28;19933;-68
2022/10/01 03:46:29;;;;;;;;;;;8.20;84.90;;;;;;5015268;28;19929;-69
2022/10/01 03:48:59;;;;;;;;;;;8.20;84.90;;;;;;5020788;28;20395;-68
2022/10/01 03:51:26;;;;;;;;;;;8.20;85.00;;;;;;5042132;28;19933;-69
2022/10/01 03:53:53;;;;;;;;;;;8.20;85.10;;;;;;5031160;28;19936;-68
2022/10/01 03:56:20;;;;;;;;;;;8.20;85.20;;;;;;5033868;28;19936;-67
2022/10/01 03:58:46;;;;;;;;;;;8.20;85.00;;;;;;5032439;28;19971;-68
2022/10/01 04:01:15;;;;;;;;;;;8.20;85.20;;;;;;5015699;28;19933;-68
2022/10/01 04:03:42;;;;;;;;;;;8.20;85.40;;;;;;5020662;28;19929;-68
2022/10/01 04:06:09;;;;;;;;;;;8.20;85.50;;;;;;5019498;28;20389;-68
2022/10/01 04:08:37;;;;;;;;;;;8.30;85.20;;;;;;5019929;28;19925;-68
2022/10/01 04:11:04;;;;;;;;;;;8.30;85.60;;;;;;5024174;28;19929;-68
2022/10/01 04:13:31;;;;;;;;;;;8.30;85.80;;;;;;5023282;28;19930;-68
2022/10/01 04:15:58;;;;;;;;;;;8.40;85.70;;;;;;5007121;28;20024;-68
2022/10/01 04:18:27;;;;;;;;;;;8.40;85.60;;;;;;5023688;28;19936;-68
2022/10/01 04:20:54;;;;;;;;;;;8.40;85.50;;;;;;5025860;28;20299;-69
2022/10/01 04:23:21;;;;;;;;;;;8.40;85.60;;;;;;5048037;28;19925;-69
2022/10/01 04:25:48;;;;;;;;;;;8.50;85.70;;;;;;5044675;28;19929;-68
2022/10/01 04:28:15;;;;;;;;;;;8.50;85.90;;;;;;5046322;28;19932;-69
2022/10/01 04:30:43;;;;;;;;;;;8.50;86.10;;;;;;5044371;28;19933;-69
2022/10/01 04:33:11;;;;;;;;;;;8.60;86.30;;;;;;5046701;28;19951;-69
2022/10/01 04:35:39;;;;;;;;;;;8.60;86.10;;;;;;5034445;28;19933;-67
2022/10/01 04:38:07;;;;;;;;;;;8.60;86.10;;;;;;5017033;28;19928;-69
2022/10/01 04:40:35;;;;;;;;;;;8.70;86.20;;;;;;5035741;28;19936;-67
2022/10/01 04:43:02;;;;;;;;;;;8.70;85.90;;;;;;5039127;28;19926;-67
2022/10/01 04:45:29;;;;;;;;;;;8.80;86.40;;;;;;5036166;28;20033;-68
2022/10/01 04:47:57;;;;;;;;;;;8.80;86.30;;;;;;5040373;28;20302;-69
2022/10/01 04:50:24;;;;;;;;;;;8.90;86.90;;;;;;5042956;28;19936;-67
2022/10/01 04:52:52;;;;;;;;;;;8.90;86.80;;;;;;5039436;28;19932;-69
2022/10/01 04:55:20;;;;;;;;;;;9.00;86.60;;;;;;5035232;28;19929;-69
2022/10/01 04:57:47;;;;;;;;;;;9.00;86.50;;;;;;5041207;28;19940;-67
2022/10/01 05:00:15;;;;;;;;;;;9.00;86.60;;;;;;5034641;28;20325;-68
2022/10/01 05:02:43;;;;;;;;;;;9.00;86.50;;;;;;5042046;28;20041;-68
2022/10/01 05:05:10;;;;;;;;;;;9.10;88.00;;;;;;5042043;28;19924;-68
2022/10/01 05:07:38;;;;;;;;;;;9.20;88.20;;;;;;5043144;28;19931;-67
2022/10/01 05:10:08;;;;;;;;;;;9.30;88.40;;;;;;5043332;28;19947;-67
2022/10/01 05:12:34;;;;;;;;;;;9.30;88.40;;;;;;5035431;28;19936;-68
2022/10/01 05:15:02;;;;;;;;;;;9.30;88.50;;;;;;5017020;28;20596;-67
2022/10/01 05:17:31;;;;;;;;;;;9.40;88.90;;;;;;5014125;28;19937;-67
2022/10/01 05:19:58;;;;;;;;;;;9.40;88.90;;;;;;5036731;28;19925;-69
2022/10/01 05:22:25;;;;;;;;;;;9.40;88.90;;;;;;5038464;28;19932;-69
2022/10/01 05:24:52;;;;;;;;;;;9.40;89.00;;;;;;5042556;28;19931;-68
2022/10/01 05:27:20;;;;;;;;;;;9.50;89.10;;;;;;5039170;28;19929;-67
2022/10/01 05:29:47;;;;;;;;;;;9.50;89.10;;;;;;5043328;28;19933;-68
2022/10/01 05:32:14;;;;;;;;;;;9.50;89.20;;;;;;5041707;28;19929;-68
2022/10/01 05:34:40;;;;;;;;;;;9.50;89.10;;;;;;5038480;28;19936;-67
2022/10/01 05:37:07;;;;;;;;;;;9.50;89.30;;;;;;5045559;28;19929;-68
2022/10/01 05:39:34;;;;;;;;;;;9.50;89.20;;;;;;5041727;28;19939;-67
2022/10/01 05:42:01;;;;;;;;;;;9.50;89.20;;;;;;5042210;28;20366;-68
2022/10/01 05:44:36;;;;;;;;;;;9.60;89.10;;;;;;5037166;28;19929;-67
2022/10/01 05:47:03;;;;;;;;;;;9.60;89.40;;;;;;5038380;28;19929;-68
2022/10/01 05:49:30;;;;;;;;;;;9.60;89.40;;;;;;5044576;28;19936;-67
2022/10/01 05:51:59;;;;;;;;;;;9.60;89.40;;;;;;5036030;28;19932;-68
2022/10/01 05:54:28;;;;;;;;;;;9.60;89.60;;;;;;5029018;28;19929;-64
2022/10/01 05:56:55;;;;;;;;;;;9.60;89.60;;;;;;5038982;28;20011;-64
2022/10/01 05:59:21;;;;;;;;;;;9.60;89.50;;;;;;5034916;28;19933;-64
2022/10/01 06:01:49;;;;;;;;;;;9.70;89.50;;;;;;5036271;28;19951;-65
2022/10/01 06:04:16;;;;;;;;;;;9.70;89.40;;;;;;5038201;28;20031;-63
2022/10/01 06:06:43;;;;;;;;;;;9.70;89.40;;;;;;5018091;28;20000;-64
2022/10/01 06:09:10;;;;;;;;;;;9.70;89.60;;;;;;5038278;28;19936;-64
2022/10/01 06:11:38;;;;;;;;;;;9.70;89.30;;;;;;5038218;28;20370;-66
2022/10/01 06:14:06;;;;;;;;;;;9.70;89.50;;;;;;5034343;28;19933;-65
2022/10/01 06:16:32;;;;;;;;;;;9.70;89.70;;;;;;5036806;28;19926;-66
2022/10/01 06:19:00;;;;;;;;;;;9.70;89.60;;;;;;5027207;28;19925;-65
2022/10/01 06:21:27;;;;;;;;;;;9.70;89.60;;;;;;5039008;28;19929;-66
2022/10/01 06:23:54;;;;;;;;;;;9.70;89.80;;;;;;5043426;28;19956;-66
2022/10/01 06:26:21;;;;;;;;;;;9.70;89.70;;;;;;5031243;28;20033;-65
2022/10/01 06:28:48;;;;;;;;;;;9.70;89.50;;;;;;5018890;28;20056;-66
2022/10/01 06:31:15;;;;;;;;;;;9.70;89.60;;;;;;5014696;28;20395;-63
2022/10/01 06:33:42;;;;;;;;;;;9.70;89.60;;;;;;5010587;28;19934;-66
2022/10/01 06:36:10;;;;;;;;;;;9.70;89.80;;;;;;5033404;28;20447;-65
2022/10/01 06:38:38;;;;;;;;;;;9.80;89.90;;;;;;5038878;28;20374;-65
2022/10/01 06:41:06;;;;;;;;;;;9.80;89.80;;;;;;5042972;28;19947;-63
2022/10/01 06:43:36;;;;;;;;;;;9.90;89.90;;;;;;5041334;28;19928;-63
2022/10/01 06:46:04;;;;;;;;;;;9.90;89.60;;;;;;5034543;28;19952;-64
2022/10/01 06:48:34;;;;;;;;;;;9.90;89.60;;;;;;5033883;28;19933;-63
2022/10/01 06:51:00;;;;;;;;;;;10.00;89.50;;;;;;5009344;28;19943;-64
2022/10/01 06:53:29;;;;;;;;;;;9.90;89.50;;;;;;5034041;28;19936;-64
2022/10/01 06:55:55;;;;;;;;;;;9.90;89.50;;;;;;5038909;28;19925;-64
2022/10/01 06:58:23;;;;;;;;;;;10.00;89.70;;;;;;5019424;28;19952;-64
2022/10/01 07:00:50;;;;;;;;;;;10.00;89.60;;;;;;5010796;28;20067;-64
2022/10/01 07:03:17;;;;;;;;;;;10.00;89.70;;;;;;5023438;28;20012;-65
2022/10/01 07:05:44;;;;;;;;;;;10.00;89.50;;;;;;5019485;28;19929;-65
2022/10/01 07:08:11;;;;;;;;;;;10.00;89.70;;;;;;5036051;28;19930;-64
2022/10/01 07:10:40;;;;;;;;;;;10.00;89.60;;;;;;5031111;28;19929;-65
2022/10/01 07:13:07;;;;;;;;;;;10.00;89.50;;;;;;5036134;28;19929;-65
2022/10/01 07:15:34;;;;;;;;;;;10.00;89.60;;;;;;5036751;28;19936;-64
2022/10/01 07:18:01;;;;;;;;;;;10.00;89.50;;;;;;5038463;28;20271;-63
2022/10/01 07:20:28;;;;;;;;;;;10.10;89.70;;;;;;5040517;28;19932;-66
2022/10/01 07:22:56;;;;;;;;;;;10.10;89.60;;;;;;5035276;28;19933;-64
2022/10/01 07:25:24;;;;;;;;;;;10.10;89.60;;;;;;5020776;28;20275;-65
2022/10/01 07:27:54;;;;;;;;;;;10.10;89.70;;;;;;5017628;28;19971;-65
2022/10/01 07:30:22;;;;;;;;;;;10.10;89.90;;;;;;5018227;28;20826;-64
2022/10/01 07:32:53;;;;;;;;;;;10.10;89.90;;;;;;5021321;28;19925;-66
2022/10/01 07:35:20;;;;;;;;;;;10.10;90.00;;;;;;5021196;28;19965;-65
2022/10/01 07:37:47;;;;;;;;;;;10.20;89.80;;;;;;5015862;28;20371;-65
2022/10/01 07:40:15;;;;;;;;;;;10.20;89.90;;;;;;5015580;28;20330;-65
2022/10/01 07:42:42;;;;;;;;;;;10.10;89.70;;;;;;5021155;28;19934;-65
2022/10/01 07:45:10;;;;;;;;;;;10.20;89.70;;;;;;5009962;28;19929;-66
2022/10/01 07:47:37;;;;;;;;;;;10.20;89.80;;;;;;5016370;28;19952;-65
2022/10/01 07:50:05;;;;;;;;;;;10.20;89.80;;;;;;5015557;28;19933;-63
2022/10/01 07:52:32;;;;;;;;;;;10.20;89.90;;;;;;5022803;28;19935;-65
2022/10/01 07:54:59;;;;;;;;;;;10.20;89.90;;;;;;5022994;28;20334;-66
2022/10/01 07:57:26;;;;;;;;;;;10.20;90.00;;;;;;5017452;28;19934;-64
2022/10/01 07:59:52;;;;;;;;;;;10.20;89.90;;;;;;5020361;28;19929;-65
2022/10/01 08:02:20;;;;;;;;;;;10.20;90.10;;;;;;5014231;28;19928;-65
2022/10/01 08:07:32;;;;;;;;;;;10.20;89.90;;;;;;5015008;28;19929;-65
2022/10/01 08:09:58;;;;;;;;;;;10.20;90.00;;;;;;5020447;28;19929;-65
2022/10/01 08:12:27;;;;;;;;;;;10.20;89.90;;;;;;5014388;28;19937;-63
2022/10/01 08:14:54;;;;;;;;;;;10.30;89.90;;;;;;5007937;28;20393;-64
2022/10/01 08:17:22;;;;;;;;;;;10.30;89.90;;;;;;5012453;28;20430;-64
2022/10/01 08:19:49;;;;;;;;;;;10.30;89.90;;;;;;5035592;28;20032;-63
2022/10/01 08:22:16;;;;;;;;;;;10.30;89.70;;;;;;5034414;28;20475;-66
2022/10/01 08:24:43;;;;;;;;;;;10.30;89.70;;;;;;5040335;28;19931;-63
2022/10/01 08:27:10;;;;;;;;;;;10.40;89.80;;;;;;5029355;28;19940;-62
2022/10/01 08:29:37;;;;;;;;;;;10.30;89.80;;;;;;5037751;28;19965;-64
2022/10/01 08:32:03;;;;;;;;;;;10.40;90.00;;;;;;5028532;28;19940;-62
2022/10/01 08:34:31;;;;;;;;;;;10.40;90.10;;;;;;5038820;28;19933;-63
2022/10/01 08:36:58;;;;;;;;;;;10.40;89.90;;;;;;5040968;28;19933;-65
2022/10/01 08:39:25;;;;;;;;;;;10.30;89.90;;;;;;5043363;28;19936;-65
2022/10/01 08:41:54;;;;;;;;;;;10.40;89.90;;;;;;5036434;28;19933;-63
2022/10/01 08:44:26;;;;;;;;;;;10.40;89.90;;;;;;5039190;28;19928;-65
2022/10/01 08:46:54;;;;;;;;;;;10.40;89.80;;;;;;5036862;28;20383;-65
2022/10/01 08:49:24;;;;;;;;;;;10.40;89.80;;;;;;5043271;28;19925;-65
2022/10/01 08:51:58;;;;;;;;;;;10.40;89.90;;;;;;5039469;28;20421;-65
2022/10/01 08:54:29;;;;;;;;;;;10.40;90.10;;;;;;5036012;28;19929;-65
2022/10/01 08:56:57;;;;;;;;;;;10.40;89.90;;;;;;5038710;28;20074;-64
2022/10/01 08:59:32;;;;;;;;;;;10.40;90.10;;;;;;5043838;28;19935;-63
2022/10/01 09:02:00;;;;;;;;;;;10.40;90.20;;;;;;5032089;28;20375;-66
2022/10/01 09:04:27;;;;;;;;;;;10.40;89.90;;;;;;5040833;28;19935;-64
2022/10/01 09:06:59;;;;;;;;;;;10.50;89.90;;;;;;5025263;28;19925;-62
2022/10/01 09:09:35;;;;;;;;;;;10.50;90.20;;;;;;5016013;28;19935;-64
2022/10/01 09:12:15;;;;;;;;;;;10.40;90.20;;;;;;5026321;28;19929;-63
2022/10/01 09:14:53;;;;;;;;;;;10.50;90.20;;;;;;5023339;28;19925;-63
2022/10/01 09:17:28;;;;;;;;;;;10.50;90.10;;;;;;5018819;28;19929;-63
2022/10/01 09:19:58;;;;;;;;;;;10.50;90.20;;;;;;5022792;28;19960;-64
2022/10/01 09:22:30;;;;;;;;;;;10.60;90.20;;;;;;5019655;28;19933;-64
2022/10/01 09:25:03;;;;;;;;;;;10.60;90.00;;;;;;5018568;28;20500;-63
2022/10/01 09:27:31;;;;;;;;;;;10.60;90.20;;;;;;5010542;28;20396;-65
2022/10/01 09:29:59;;;;;;;;;;;10.60;90.10;;;;;;5033573;28;19965;-67
2022/10/01 09:32:32;;;;;;;;;;;10.60;90.10;;;;;;5032104;28;19939;-64
2022/10/01 09:35:06;;;;;;;;;;;10.60;90.00;;;;;;5037981;28;19929;-63
2022/10/01 09:37:38;;;;;;;;;;;10.60;90.20;;;;;;5035220;28;19929;-64
2022/10/01 09:40:13;;;;;;;;;;;10.70;90.20;;;;;;5038491;28;20082;-64
2022/10/01 09:42:40;;;;;;;;;;;10.70;90.20;;;;;;5043211;28;20003;-65
2022/10/01 09:45:10;;;;;;;;;;;10.70;90.20;;;;;;5036421;28;20425;-65
2022/10/01 09:47:37;;;;;;;;;;;10.70;89.90;;;;;;5036257;28;19929;-65
2022/10/01 09:50:05;;;;;;;;;;;10.70;90.10;;;;;;5038602;28;19932;-64
2022/10/01 09:52:33;;;;;;;;;;;10.70;90.20;;;;;;5040406;28;20000;-66
2022/10/01 09:55:02;;;;;;;;;;;10.70;90.20;;;;;;5030924;28;19924;-65
2022/10/01 09:57:34;;;;;;;;;;;10.80;90.10;;;;;;5035787;28;20015;-64
2022/10/01 10:00:03;;;;;;;;;;;10.80;90.00;;;;;;5033331;28;19932;-64
2022/10/01 10:02:32;;;;;;;;;;;10.80;90.00;;;;;;5037405;28;19929;-65
2022/10/01 10:05:01;;;;;;;;;;;10.80;90.10;;;;;;5040590;28;19925;-65
2022/10/01 10:07:28;;;;;;;;;;;10.90;90.10;;;;;;5041901;28;19935;-65
2022/10/01 10:09:55;;;;;;;;;;;10.90;90.10;;;;;;5039796;28;19924;-66
2022/10/01 10:12:28;;;;;;;;;;;10.90;90.20;;;;;;5040648;28;19937;-64
2022/10/01 10:14:57;;;;;;;;;;;10.90;90.00;;;;;;5043204;28;19925;-65
2022/10/01 10:17:24;;;;;;;;;;;11.00;89.80;;;;;;5040086;28;20010;-62
2022/10/01 10:19:52;;;;;;;;;;;11.00;90.00;;;;;;5040805;28;19925;-63
2022/10/01 10:22:22;;;;;;;;;;;11.00;90.10;;;;;;5030637;28;19932;-65
2022/10/01 10:24:49;;;;;;;;;;;11.10;89.90;;;;;;5041170;28;19931;-64
2022/10/01 10:27:25;;;;;;;;;;;11.10;89.90;;;;;;5043745;28;19929;-64
2022/10/01 10:30:03;;;;;;;;;;;11.10;89.90;;;;;;5031173;28;19956;-63
2022/10/01 10:32:30;;;;;;;;;;;11.10;89.90;;;;;;5040428;28;20019;-65
2022/10/01 10:34:59;;;;;;;;;;;11.10;89.90;;;;;;5039538;28;19933;-65
2022/10/01 10:37:27;;;;;;;;;;;11.10;89.80;;;;;;5038178;28;19931;-65
2022/10/01 10:39:54;;;;;;;;;;;11.10;89.80;;;;;;5041529;28;19928;-65
2022/10/01 10:42:21;;;;;;;;;;;11.20;89.80;;;;;;5035042;28;20011;-63
2022/10/01 10:44:49;;;;;;;;;;;11.20;89.80;;;;;;5043549;28;20321;-63
2022/10/01 10:47:18;;;;;;;;;;;11.20;90.00;;;;;;5037942;28;19925;-62
2022/10/01 10:49:46;;;;;;;;;;;11.20;89.90;;;;;;5038219;28;19933;-64
2022/10/01 10:52:20;;;;;;;;;;;11.20;89.80;;;;;;5040156;28;19925;-65
2022/10/01 10:54:48;;;;;;;;;;;11.20;89.90;;;;;;5038868;28;20022;-64
2022/10/01 10:57:20;;;;;;;;;;;11.30;90.10;;;;;;5036671;28;19936;-64
2022/10/01 10:59:54;;;;;;;;;;;11.30;90.00;;;;;;5039569;28;19984;-64
2022/10/01 11:02:24;;;;;;;;;;;11.30;90.00;;;;;;5035177;28;20389;-65
2022/10/01 11:04:52;;;;;;;;;;;11.30;89.90;;;;;;5031876;28;19971;-64
2022/10/01 11:07:20;;;;;;;;;;;11.30;90.00;;;;;;5041339;28;19940;-64
2022/10/01 11:09:53;;;;;;;;;;;11.30;89.90;;;;;;5035291;28;19929;-64
2022/10/01 11:12:28;;;;;;;;;;;11.30;89.90;;;;;;5039573;28;19925;-64
2022/10/01 11:14:59;;;;;;;;;;;11.40;89.90;;;;;;5034603;28;19936;-65
2022/10/01 11:17:54;;;;;;;;;;;11.30;89.80;;;;;;5032620;28;21302;-65
2022/10/01 11:20:38;;;;;;;;;;;11.40;89.90;;;;;;5037890;28;20013;-66
2022/10/01 11:23:14;;;;;;;;;;;11.40;89.80;;;;;;5030697;28;19947;-64
2022/10/01 11:25:46;;;;;;;;;;;11.40;89.80;;;;;;5038883;28;19970;-63
2022/10/01 11:28:21;;;;;;;;;;;11.40;89.80;;;;;;5029172;28;19933;-62
2022/10/01 11:30:57;;;;;;;;;;;11.50;89.80;;;;;;5010746;28;19929;-63
2022/10/01 11:33:30;;;;;;;;;;;11.50;89.70;;;;;;5033899;28;19936;-64
2022/10/01 11:36:00;;;;;;;;;;;11.50;89.70;;;;;;5044364;28;19929;-63
2022/10/01 11:38:37;;;;;;;;;;;11.50;89.60;;;;;;5041152;28;19982;-64
2022/10/01 11:41:10;;;;;;;;;;;11.60;89.60;;;;;;5036963;28;19932;-63
2022/10/01 11:43:39;;;;;;;;;;;11.60;89.60;;;;;;5038505;28;19933;-65
2022/10/01 11:46:08;;;;;;;;;;;11.60;89.50;;;;;;5032072;28;19925;-64
2022/10/01 11:48:39;;;;;;;;;;;11.70;89.40;;;;;;5005483;28;19948;-62
2022/10/01 11:51:11;;;;;;;;;;;11.70;89.40;;;;;;5012263;28;19933;-63
2022/10/01 11:53:43;;;;;;;;;;;11.70;89.30;;;;;;5014749;28;20338;-63
2022/10/01 11:59:01;;;;;;;;;;;11.80;89.50;;;;;;5033584;28;20268;-62
2022/10/01 12:01:33;;;;;;;;;;;11.80;89.50;;;;;;5006396;28;19976;-64
2022/10/01 12:04:21;;;;;;;;;;;11.80;89.60;;;;;;5018944;28;19937;-65
2022/10/01 12:06:53;;;;;;;;;;;11.80;89.70;;;;;;5008240;28;19947;-62
2022/10/01 12:09:24;;;;;;;;;;;11.70;89.90;;;;;;5010720;28;20442;-64
2022/10/01 12:11:56;;;;;;;;;;;11.70;89.70;;;;;;5008617;28;19936;-69
2022/10/01 12:14:26;;;;;;;;;;;11.80;90.00;;;;;;5024997;28;19926;-71
2022/10/01 12:16:56;;;;;;;;;;;11.90;90.00;;;;;;5010069;28;20553;-70
2022/10/01 12:19:24;;;;;;;;;;;11.90;90.10;;;;;;5009600;28;19933;-70
2022/10/01 12:21:54;;;;;;;;;;;11.90;90.30;;;;;;5014096;28;19981;-70
2022/10/01 12:24:26;;;;;;;;;;;11.90;90.30;;;;;;5008088;28;19972;-70
2022/10/01 12:26:56;;;;;;;;;;;12.00;90.40;;;;;;5009352;28;20386;-72
2022/10/01 12:29:26;;;;;;;;;;;11.90;90.40;;;;;;5009135;28;19932;-71
2022/10/01 12:31:58;;;;;;;;;;;12.00;90.40;;;;;;5010324;28;20376;-70
2022/10/01 12:34:30;;;;;;;;;;;11.90;90.40;;;;;;5013667;28;19933;-70
2022/10/01 12:37:08;;;;;;;;;;;12.00;90.40;;;;;;5014179;28;19935;-67
2022/10/01 12:39:40;;;;;;;;;;;12.10;90.40;;;;;;5010747;28;19968;-67
2022/10/01 12:42:14;;;;;;;;;;;12.10;90.30;;;;;;5012467;28;19940;-66
2022/10/01 12:44:50;;;;;;;;;;;12.10;90.20;;;;;;5010884;28;20409;-68
2022/10/01 12:47:27;;;;;;;;;;;12.20;90.30;;;;;;5017492;28;19941;-66
2022/10/01 12:50:00;;;;;;;;;;;12.20;90.20;;;;;;5030783;28;20347;-68
2022/10/01 12:52:33;;;;;;;;;;;12.20;90.20;;;;;;5002981;28;19925;-67
2022/10/01 12:55:09;;;;;;;;;;;12.20;90.20;;;;;;5021512;28;19929;-68
2022/10/01 12:57:44;;;;;;;;;;;12.30;90.10;;;;;;5022012;28;20407;-72
2022/10/01 13:00:13;;;;;;;;;;;12.30;90.00;;;;;;5041306;28;19928;-67
2022/10/01 13:02:54;;;;;;;;;;;12.40;90.00;;;;;;5044729;28;19939;-68
2022/10/01 13:05:27;;;;;;;;;;;12.40;90.10;;;;;;5041363;28;19924;-67
2022/10/01 13:08:18;;;;;;;;;;;12.40;90.10;;;;;;5045113;28;19928;-68
2022/10/01 13:10:52;;;;;;;;;;;12.40;90.20;;;;;;5029565;28;19929;-67
2022/10/01 13:13:21;;;;;;;;;;;12.40;90.30;;;;;;5036238;28;19935;-68
2022/10/01 13:15:49;;;;;;;;;;;12.40;90.20;;;;;;5042731;28;19929;-68
2022/10/01 13:18:21;;;;;;;;;;;12.40;90.20;;;;;;5005957;28;19933;-67
2022/10/01 13:20:52;;;;;;;;;;;12.50;90.20;;;;;;5022131;28;19947;-68
2022/10/01 13:23:23;;;;;;;;;;;12.50;90.30;;;;;;5038299;28;19986;-68
2022/10/01 13:25:57;;;;;;;;;;;12.50;90.30;;;;;;5036749;28;19947;-67
2022/10/01 13:28:26;;;;;;;;;;;12.50;90.20;;;;;;5026818;28;19932;-68
2022/10/01 13:30:57;;;;;;;;;;;12.60;90.10;;;;;;5037573;28;20087;-68
2022/10/01 13:33:26;;;;;;;;;;;12.60;90.10;;;;;;5039929;28;20008;-68
2022/10/01 13:35:53;;;;;;;;;;;12.70;89.80;;;;;;5038932;28;19928;-67
2022/10/01 13:38:27;;;;;;;;;;;12.80;89.90;;;;;;5027550;28;19929;-67
2022/10/01 13:41:00;;;;;;;;;;;12.80;89.90;;;;;;5015427;28;19991;-67
2022/10/01 13:43:29;;;;;;;;;;;12.90;89.70;;;;;;5036768;28;20023;-67
2022/10/01 13:46:03;;;;;;;;;;;12.90;89.60;;;;;;5043530;28;19929;-67
2022/10/01 13:48:33;;;;;;;;;;;12.90;89.50;;;;;;5035062;28;19937;-67
2022/10/01 13:51:02;;;;;;;;;;;13.00;89.70;;;;;;5038271;28;20035;-67
2022/10/01 13:53:30;;;;;;;;;;;13.00;89.70;;;;;;5038944;28;19986;-67
2022/10/01 13:55:57;;;;;;;;;;;13.00;89.70;;;;;;5041290;28;19925;-67
2022/10/01 13:58:33;;;;;;;;;;;13.00;89.50;;;;;;5020612;28;19940;-67
2022/10/01 14:01:01;;;;;;;;;;;13.10;89.40;;;;;;5018464;28;19948;-67
2022/10/01 14:03:36;;;;;;;;;;;13.10;89.30;;;;;;5024396;28;19994;-68
2022/10/01 14:06:04;;;;;;;;;;;13.10;89.20;;;;;;5020508;28;19990;-68
2022/10/01 14:08:32;;;;;;;;;;;13.20;89.20;;;;;;5024186;28;19925;-67
2022/10/01 14:16:35;;;;;;;;;;;13.30;88.80;;;;;;5016182;28;20380;-68
2022/10/01 14:19:02;;;;;;;;;;;13.40;88.70;;;;;;5015778;28;19928;-66
2022/10/01 14:21:35;;;;;;;;;;;13.40;88.60;;;;;;5020555;28;19929;-67
2022/10/01 14:24:06;;;;;;;;;;;13.50;88.50;;;;;;5023192;28;19936;-66
2022/10/01 14:26:37;;;;;;;;;;;13.50;88.40;;;;;;5027766;28;19933;-67
2022/10/01 14:29:10;;;;;;;;;;;13.50;88.50;;;;;;5019056;28;19933;-68
2022/10/01 14:31:43;;;;;;;;;;;13.50;88.60;;;;;;5018441;28;19926;-68
2022/10/01 14:34:17;;;;;;;;;;;13.50;88.50;;;;;;5020715;28;19930;-68
2022/10/01 14:36:48;;;;;;;;;;;13.60;88.50;;;;;;5021146;28;19926;-67
2022/10/01 14:39:15;;;;;;;;;;;13.70;88.40;;;;;;5017682;28;19929;-68
2022/10/01 14:41:42;;;;;;;;;;;13.60;88.40;;;;;;5017114;28;19932;-68
2022/10/01 14:44:21;;;;;;;;;;;13.60;88.40;;;;;;5016360;28;20398;-66
2022/10/01 14:46:48;;;;;;;;;;;13.60;88.30;;;;;;5015269;28;19933;-66
2022/10/01 14:49:22;;;;;;;;;;;13.60;88.20;;;;;;5016453;28;20541;-66